sensor_id;sensor_type;location;lat;lon;timestamp;pressure;altitude;pressure_sealevel;temperature;humidity
12757;BME280;31601;48.042;12.240;2023-04-09T00:00:36;96815.75;;;5.04;73.22
12757;BME280;31601;48.042;12.240;2023-04-09T00:03:03;96811.09;;;5.08;73.34
12757;BME280;31601;48.042;12.240;2023-04-09T00:05:29;96817.13;;;5.08;73.11
12757;BME280;31601;48.042;12.240;2023-04-09T00:07:57;96809.84;;;5.02;73.39
12757;BME280;31601;48.042;12.240;2023-04-09T00:10:24;96811.47;;;5.03;73.06
12757;BME280;31601;48.042;12.240;2023-04-09T00:12:50;96811.44;;;4.74;73.34
12757;BME280;31601;48.042;12.240;2023-04-09T00:15:16;96813.47;;;4.70;73.48
12757;BME280;31601;48.042;12.240;2023-04-09T00:17:43;96811.88;;;4.79;73.40
12757;BME280;31601;48.042;12.240;2023-04-09T00:20:10;96812.00;;;4.77;73.53
12757;BME280;31601;48.042;12.240;2023-04-09T00:22:36;96813.63;;;4.78;73.17
12757;BME280;31601;48.042;12.240;2023-04-09T00:25:05;96815.16;;;4.40;73.98
12757;BME280;31601;48.042;12.240;2023-04-09T00:27:32;96807.16;;;4.22;73.96
12757;BME280;31601;48.042;12.240;2023-04-09T00:29:58;96808.81;;;4.23;74.22
12757;BME280;31601;48.042;12.240;2023-04-09T00:32:25;96798.59;;;4.41;73.94
12757;BME280;31601;48.042;12.240;2023-04-09T00:34:51;96812.44;;;4.42;74.14
12757;BME280;31601;48.042;12.240;2023-04-09T00:37:18;96805.56;;;4.31;74.01
12757;BME280;31601;48.042;12.240;2023-04-09T00:39:44;96797.41;;;4.45;73.63
12757;BME280;31601;48.042;12.240;2023-04-09T00:42:13;96804.53;;;4.53;73.68
12757;BME280;31601;48.042;12.240;2023-04-09T00:44:40;96802.63;;;4.55;74.01
12757;BME280;31601;48.042;12.240;2023-04-09T00:47:07;96803.00;;;4.51;73.70
12757;BME280;31601;48.042;12.240;2023-04-09T00:49:33;96811.47;;;4.12;75.45
12757;BME280;31601;48.042;12.240;2023-04-09T00:52:00;96810.69;;;4.21;74.94
12757;BME280;31601;48.042;12.240;2023-04-09T00:54:26;96814.84;;;4.34;75.09
12757;BME280;31601;48.042;12.240;2023-04-09T00:56:53;96810.81;;;4.51;75.10
12757;BME280;31601;48.042;12.240;2023-04-09T00:59:23;96811.66;;;4.51;75.11
12757;BME280;31601;48.042;12.240;2023-04-09T01:01:50;96808.13;;;4.62;74.58
12757;BME280;31601;48.042;12.240;2023-04-09T01:04:17;96814.25;;;4.51;74.74
12757;BME280;31601;48.042;12.240;2023-04-09T01:06:48;96821.19;;;4.51;74.95
12757;BME280;31601;48.042;12.240;2023-04-09T01:09:20;96820.56;;;4.27;75.31
12757;BME280;31601;48.042;12.240;2023-04-09T01:11:57;96814.44;;;4.38;74.93
12757;BME280;31601;48.042;12.240;2023-04-09T01:14:31;96816.31;;;4.57;74.55
12757;BME280;31601;48.042;12.240;2023-04-09T01:17:04;96819.50;;;4.71;74.67
12757;BME280;31601;48.042;12.240;2023-04-09T01:19:40;96812.53;;;4.81;74.62
12757;BME280;31601;48.042;12.240;2023-04-09T01:22:16;96809.00;;;4.92;74.31
12757;BME280;31601;48.042;12.240;2023-04-09T01:24:59;96807.94;;;5.04;74.39
12757;BME280;31601;48.042;12.240;2023-04-09T01:27:33;96807.41;;;5.10;74.07
12757;BME280;31601;48.042;12.240;2023-04-09T01:30:05;96806.44;;;5.11;73.96
12757;BME280;31601;48.042;12.240;2023-04-09T01:32:33;96809.88;;;5.12;74.22
12757;BME280;31601;48.042;12.240;2023-04-09T01:35:03;96812.59;;;5.10;74.20
12757;BME280;31601;48.042;12.240;2023-04-09T01:37:31;96815.06;;;5.02;74.38
12757;BME280;31601;48.042;12.240;2023-04-09T01:39:58;96818.56;;;4.81;74.88
12757;BME280;31601;48.042;12.240;2023-04-09T01:42:26;96812.41;;;4.73;75.17
12757;BME280;31601;48.042;12.240;2023-04-09T01:44:53;96807.56;;;4.58;75.87
12757;BME280;31601;48.042;12.240;2023-04-09T01:47:22;96808.38;;;4.59;75.38
12757;BME280;31601;48.042;12.240;2023-04-09T01:49:48;96813.41;;;4.51;75.87
12757;BME280;31601;48.042;12.240;2023-04-09T01:52:15;96814.44;;;4.38;75.75
12757;BME280;31601;48.042;12.240;2023-04-09T01:54:42;96806.97;;;4.45;75.96
12757;BME280;31601;48.042;12.240;2023-04-09T01:57:08;96807.34;;;4.71;75.50
12757;BME280;31601;48.042;12.240;2023-04-09T01:59:35;96802.69;;;4.84;74.89
12757;BME280;31601;48.042;12.240;2023-04-09T02:02:05;96801.63;;;4.97;74.71
12757;BME280;31601;48.042;12.240;2023-04-09T02:04:39;96801.25;;;5.11;74.70
12757;BME280;31601;48.042;12.240;2023-04-09T02:07:09;96796.44;;;5.16;74.26
12757;BME280;31601;48.042;12.240;2023-04-09T02:09:39;96806.31;;;5.23;74.38
12757;BME280;31601;48.042;12.240;2023-04-09T02:12:12;96805.63;;;5.20;74.47
12757;BME280;31601;48.042;12.240;2023-04-09T02:14:40;96812.72;;;5.18;74.58
12757;BME280;31601;48.042;12.240;2023-04-09T02:17:06;96817.81;;;5.10;74.98
12757;BME280;31601;48.042;12.240;2023-04-09T02:19:42;96825.19;;;5.05;75.30
12757;BME280;31601;48.042;12.240;2023-04-09T02:22:09;96825.19;;;5.05;75.15
12757;BME280;31601;48.042;12.240;2023-04-09T02:24:36;96829.31;;;5.17;74.98
12757;BME280;31601;48.042;12.240;2023-04-09T02:27:03;96826.19;;;5.24;75.05
12757;BME280;31601;48.042;12.240;2023-04-09T02:29:30;96831.91;;;5.17;74.56
12757;BME280;31601;48.042;12.240;2023-04-09T02:31:56;96826.44;;;5.20;74.53
12757;BME280;31601;48.042;12.240;2023-04-09T02:34:23;96825.06;;;5.26;74.86
12757;BME280;31601;48.042;12.240;2023-04-09T02:36:51;96836.16;;;5.18;74.92
12757;BME280;31601;48.042;12.240;2023-04-09T02:39:18;96827.13;;;5.13;74.87
12757;BME280;31601;48.042;12.240;2023-04-09T02:41:44;96830.28;;;5.16;74.78
12757;BME280;31601;48.042;12.240;2023-04-09T02:44:11;96831.91;;;5.17;74.89
12757;BME280;31601;48.042;12.240;2023-04-09T02:46:38;96828.50;;;5.27;74.32
12757;BME280;31601;48.042;12.240;2023-04-09T02:49:04;96824.13;;;5.37;74.29
12757;BME280;31601;48.042;12.240;2023-04-09T02:51:33;96835.34;;;5.47;74.13
12757;BME280;31601;48.042;12.240;2023-04-09T02:54:01;96824.38;;;5.24;74.63
12757;BME280;31601;48.042;12.240;2023-04-09T02:56:27;96825.47;;;5.31;74.78
12757;BME280;31601;48.042;12.240;2023-04-09T02:58:54;96828.91;;;5.32;74.40
12757;BME280;31601;48.042;12.240;2023-04-09T03:01:20;96826.31;;;5.32;74.43
12757;BME280;31601;48.042;12.240;2023-04-09T03:03:47;96829.72;;;5.42;74.05
12757;BME280;31601;48.042;12.240;2023-04-09T03:06:13;96826.56;;;5.48;73.92
12757;BME280;31601;48.042;12.240;2023-04-09T03:08:39;96819.06;;;5.55;73.97
12757;BME280;31601;48.042;12.240;2023-04-09T03:11:07;96819.19;;;5.63;73.54
12757;BME280;31601;48.042;12.240;2023-04-09T03:13:34;96812.88;;;5.56;73.90
12757;BME280;31601;48.042;12.240;2023-04-09T03:16:00;96813.00;;;5.54;73.88
12757;BME280;31601;48.042;12.240;2023-04-09T03:18:26;96806.56;;;5.59;73.97
12757;BME280;31601;48.042;12.240;2023-04-09T03:20:53;96806.16;;;5.63;73.38
12757;BME280;31601;48.042;12.240;2023-04-09T03:23:19;96799.16;;;5.64;73.75
12757;BME280;31601;48.042;12.240;2023-04-09T03:25:46;96803.56;;;5.63;73.47
12757;BME280;31601;48.042;12.240;2023-04-09T03:28:13;96805.47;;;5.51;73.68
12757;BME280;31601;48.042;12.240;2023-04-09T03:30:40;96798.66;;;5.50;73.89
12757;BME280;31601;48.042;12.240;2023-04-09T03:33:06;96800.84;;;5.55;73.56
12757;BME280;31601;48.042;12.240;2023-04-09T03:35:33;96802.19;;;5.59;73.64
12757;BME280;31601;48.042;12.240;2023-04-09T03:37:59;96800.56;;;5.58;73.44
12757;BME280;31601;48.042;12.240;2023-04-09T03:40:26;96801.66;;;5.55;73.07
12757;BME280;31601;48.042;12.240;2023-04-09T03:42:52;96807.13;;;5.52;73.30
12757;BME280;31601;48.042;12.240;2023-04-09T03:45:20;96803.31;;;5.56;73.24
12757;BME280;31601;48.042;12.240;2023-04-09T03:47:46;96797.00;;;5.49;73.01
12757;BME280;31601;48.042;12.240;2023-04-09T03:50:13;96809.31;;;5.28;73.46
12757;BME280;31601;48.042;12.240;2023-04-09T03:52:39;96807.38;;;5.30;73.37
12757;BME280;31601;48.042;12.240;2023-04-09T03:55:07;96809.19;;;5.39;73.55
12757;BME280;31601;48.042;12.240;2023-04-09T03:57:34;96799.47;;;5.41;73.38
12757;BME280;31601;48.042;12.240;2023-04-09T04:00:00;96793.44;;;5.41;73.23
12757;BME280;31601;48.042;12.240;2023-04-09T04:02:29;96784.25;;;5.46;73.23
12757;BME280;31601;48.042;12.240;2023-04-09T04:04:57;96771.78;;;5.40;73.24
12757;BME280;31601;48.042;12.240;2023-04-09T04:07:24;96784.00;;;5.40;73.03
12757;BME280;31601;48.042;12.240;2023-04-09T04:09:50;96797.00;;;5.30;72.95
12757;BME280;31601;48.042;12.240;2023-04-09T04:12:17;96808.34;;;4.90;73.86
12757;BME280;31601;48.042;12.240;2023-04-09T04:14:43;96821.03;;;4.83;73.52
12757;BME280;31601;48.042;12.240;2023-04-09T04:17:10;96812.94;;;4.76;73.43
12757;BME280;31601;48.042;12.240;2023-04-09T04:19:38;96818.16;;;4.76;73.37
12757;BME280;31601;48.042;12.240;2023-04-09T04:22:04;96825.09;;;4.66;73.17
12757;BME280;31601;48.042;12.240;2023-04-09T04:24:31;96825.59;;;4.50;74.30
12757;BME280;31601;48.042;12.240;2023-04-09T04:26:57;96824.78;;;4.50;74.21
12757;BME280;31601;48.042;12.240;2023-04-09T04:29:23;96833.66;;;4.57;74.42
12757;BME280;31601;48.042;12.240;2023-04-09T04:31:50;96835.88;;;4.61;73.90
12757;BME280;31601;48.042;12.240;2023-04-09T04:34:16;96826.59;;;4.59;74.41
12757;BME280;31601;48.042;12.240;2023-04-09T04:36:44;96829.19;;;4.59;74.46
12757;BME280;31601;48.042;12.240;2023-04-09T04:39:10;96825.75;;;4.58;74.41
12757;BME280;31601;48.042;12.240;2023-04-09T04:41:37;96824.56;;;4.72;74.15
12757;BME280;31601;48.042;12.240;2023-04-09T04:44:03;96821.00;;;4.73;74.17
12757;BME280;31601;48.042;12.240;2023-04-09T04:46:30;96811.44;;;4.74;73.84
12757;BME280;31601;48.042;12.240;2023-04-09T04:48:56;96810.34;;;4.76;73.29
12757;BME280;31601;48.042;12.240;2023-04-09T04:51:23;96821.53;;;4.67;73.17
12757;BME280;31601;48.042;12.240;2023-04-09T04:53:52;96815.22;;;4.60;73.45
12757;BME280;31601;48.042;12.240;2023-04-09T04:56:19;96817.81;;;4.60;73.41
12757;BME280;31601;48.042;12.240;2023-04-09T04:58:45;96819.88;;;4.56;73.37
12757;BME280;31601;48.042;12.240;2023-04-09T05:01:12;96835.19;;;4.59;73.18
12757;BME280;31601;48.042;12.240;2023-04-09T05:03:38;96826.19;;;4.63;73.27
12757;BME280;31601;48.042;12.240;2023-04-09T05:06:05;96824.13;;;4.67;73.33
12757;BME280;31601;48.042;12.240;2023-04-09T05:08:31;96832.34;;;4.72;73.71
12757;BME280;31601;48.042;12.240;2023-04-09T05:10:59;96829.34;;;4.77;73.66
12757;BME280;31601;48.042;12.240;2023-04-09T05:13:25;96830.34;;;4.86;73.57
12757;BME280;31601;48.042;12.240;2023-04-09T05:15:52;96826.81;;;4.87;73.78
12757;BME280;31601;48.042;12.240;2023-04-09T05:18:18;96829.00;;;4.91;73.15
12757;BME280;31601;48.042;12.240;2023-04-09T05:20:45;96837.88;;;4.98;73.22
12757;BME280;31601;48.042;12.240;2023-04-09T05:23:11;96846.28;;;5.02;73.46
12757;BME280;31601;48.042;12.240;2023-04-09T05:25:37;96851.75;;;5.09;73.32
12757;BME280;31601;48.042;12.240;2023-04-09T05:28:05;96847.53;;;5.17;73.01
12757;BME280;31601;48.042;12.240;2023-04-09T05:30:32;96845.34;;;5.23;73.25
12757;BME280;31601;48.042;12.240;2023-04-09T05:32:58;96847.81;;;5.24;73.23
12757;BME280;31601;48.042;12.240;2023-04-09T05:35:25;96851.78;;;5.38;73.06
12757;BME280;31601;48.042;12.240;2023-04-09T05:37:51;96851.25;;;5.44;72.87
12757;BME280;31601;48.042;12.240;2023-04-09T05:40:18;96855.19;;;5.48;72.88
12757;BME280;31601;48.042;12.240;2023-04-09T05:42:44;96855.63;;;5.53;73.23
12757;BME280;31601;48.042;12.240;2023-04-09T05:45:12;96865.22;;;5.63;73.09
12757;BME280;31601;48.042;12.240;2023-04-09T05:47:38;96861.38;;;5.67;72.88
12757;BME280;31601;48.042;12.240;2023-04-09T05:50:05;96849.19;;;5.77;72.92
12757;BME280;31601;48.042;12.240;2023-04-09T05:52:32;96847.66;;;5.84;72.60
12757;BME280;31601;48.042;12.240;2023-04-09T05:54:58;96846.13;;;5.91;72.64
12757;BME280;31601;48.042;12.240;2023-04-09T05:57:25;96856.69;;;5.90;72.59
12757;BME280;31601;48.042;12.240;2023-04-09T05:59:52;96859.75;;;5.66;72.38
12757;BME280;31601;48.042;12.240;2023-04-09T06:02:19;96864.94;;;5.66;71.91
12757;BME280;31601;48.042;12.240;2023-04-09T06:04:46;96869.19;;;5.57;72.46
12757;BME280;31601;48.042;12.240;2023-04-09T06:07:12;96873.44;;;5.68;72.06
12757;BME280;31601;48.042;12.240;2023-04-09T06:09:39;96877.25;;;5.83;71.79
12757;BME280;31601;48.042;12.240;2023-04-09T06:12:05;96872.59;;;5.87;72.20
12757;BME280;31601;48.042;12.240;2023-04-09T06:14:32;96873.16;;;5.90;71.87
12757;BME280;31601;48.042;12.240;2023-04-09T06:16:58;96873.56;;;5.96;71.85
12757;BME280;31601;48.042;12.240;2023-04-09T06:19:26;96878.91;;;6.04;72.03
12757;BME280;31601;48.042;12.240;2023-04-09T06:21:52;96871.50;;;6.19;71.53
12757;BME280;31601;48.042;12.240;2023-04-09T06:24:19;96870.25;;;6.23;71.75
12757;BME280;31601;48.042;12.240;2023-04-09T06:26:46;96865.53;;;6.36;71.79
12757;BME280;31601;48.042;12.240;2023-04-09T06:29:12;96860.72;;;6.51;71.19
12757;BME280;31601;48.042;12.240;2023-04-09T06:31:38;96863.16;;;6.53;71.61
12757;BME280;31601;48.042;12.240;2023-04-09T06:34:06;96873.84;;;6.59;70.72
12757;BME280;31601;48.042;12.240;2023-04-09T06:36:33;96869.03;;;6.65;70.40
12757;BME280;31601;48.042;12.240;2023-04-09T06:39:01;96877.25;;;6.70;70.38
12757;BME280;31601;48.042;12.240;2023-04-09T06:41:28;96881.22;;;6.74;70.13
12757;BME280;31601;48.042;12.240;2023-04-09T06:43:54;96882.56;;;6.78;70.23
12757;BME280;31601;48.042;12.240;2023-04-09T06:46:21;96881.53;;;6.89;70.42
12757;BME280;31601;48.042;12.240;2023-04-09T06:48:48;96875.72;;;7.05;70.09
12757;BME280;31601;48.042;12.240;2023-04-09T06:51:15;96882.28;;;7.09;70.11
12757;BME280;31601;48.042;12.240;2023-04-09T06:53:42;96870.88;;;7.10;69.10
12757;BME280;31601;48.042;12.240;2023-04-09T06:56:09;96874.34;;;7.28;69.41
12757;BME280;31601;48.042;12.240;2023-04-09T06:58:35;96883.31;;;7.44;69.17
12757;BME280;31601;48.042;12.240;2023-04-09T07:01:02;96885.09;;;7.61;68.93
12757;BME280;31601;48.042;12.240;2023-04-09T07:03:29;96895.50;;;7.71;68.18
12757;BME280;31601;48.042;12.240;2023-04-09T07:05:55;96893.91;;;7.60;66.92
12757;BME280;31601;48.042;12.240;2023-04-09T07:08:22;96887.84;;;7.60;67.04
12757;BME280;31601;48.042;12.240;2023-04-09T07:10:50;96892.03;;;7.88;67.32
12757;BME280;31601;48.042;12.240;2023-04-09T07:13:16;96894.19;;;7.93;66.84
12757;BME280;31601;48.042;12.240;2023-04-09T07:15:43;96883.72;;;8.11;66.79
12757;BME280;31601;48.042;12.240;2023-04-09T07:18:09;96880.22;;;8.20;66.84
12757;BME280;31601;48.042;12.240;2023-04-09T07:20:36;96890.28;;;8.41;66.27
12757;BME280;31601;48.042;12.240;2023-04-09T07:23:02;96892.88;;;8.33;65.45
12757;BME280;31601;48.042;12.240;2023-04-09T07:25:29;96893.91;;;8.40;65.37
12757;BME280;31601;48.042;12.240;2023-04-09T07:27:56;96899.22;;;8.49;65.73
12757;BME280;31601;48.042;12.240;2023-04-09T07:30:23;96894.91;;;8.66;65.21
12757;BME280;31601;48.042;12.240;2023-04-09T07:32:49;96891.50;;;8.73;64.92
12757;BME280;31601;48.042;12.240;2023-04-09T07:35:16;96885.81;;;8.86;64.73
12757;BME280;31601;48.042;12.240;2023-04-09T07:37:42;96892.41;;;8.90;64.28
12757;BME280;31601;48.042;12.240;2023-04-09T07:40:09;96890.38;;;8.76;63.75
12757;BME280;31601;48.042;12.240;2023-04-09T07:42:36;96892.47;;;8.72;63.68
12757;BME280;31601;48.042;12.240;2023-04-09T07:45:05;96894.75;;;8.67;63.71
12757;BME280;31601;48.042;12.240;2023-04-09T07:47:32;96901.00;;;8.74;63.87
12757;BME280;31601;48.042;12.240;2023-04-09T07:49:58;96895.50;;;8.86;63.82
12757;BME280;31601;48.042;12.240;2023-04-09T07:52:25;96897.00;;;8.96;63.92
12757;BME280;31601;48.042;12.240;2023-04-09T07:54:51;96900.81;;;9.10;63.60
12757;BME280;31601;48.042;12.240;2023-04-09T07:57:17;96910.41;;;9.36;63.20
12757;BME280;31601;48.042;12.240;2023-04-09T07:59:44;96905.75;;;9.22;62.40
12757;BME280;31601;48.042;12.240;2023-04-09T08:02:12;96904.38;;;9.52;62.47
12757;BME280;31601;48.042;12.240;2023-04-09T08:04:38;96912.41;;;9.42;62.17
12757;BME280;31601;48.042;12.240;2023-04-09T08:07:05;96915.69;;;9.53;61.87
12757;BME280;31601;48.042;12.240;2023-04-09T08:09:32;96909.16;;;9.57;62.19
12757;BME280;31601;48.042;12.240;2023-04-09T08:11:58;96911.69;;;9.32;61.46
12757;BME280;31601;48.042;12.240;2023-04-09T08:14:25;96908.06;;;9.25;61.38
12757;BME280;31601;48.042;12.240;2023-04-09T08:16:51;96912.66;;;9.23;62.36
12757;BME280;31601;48.042;12.240;2023-04-09T08:19:19;96914.19;;;9.42;63.12
12757;BME280;31601;48.042;12.240;2023-04-09T08:21:46;96906.22;;;9.68;62.62
12757;BME280;31601;48.042;12.240;2023-04-09T08:24:14;96909.03;;;9.83;60.98
12757;BME280;31601;48.042;12.240;2023-04-09T08:26:41;96906.06;;;9.94;60.70
12757;BME280;31601;48.042;12.240;2023-04-09T08:29:09;96906.25;;;10.17;60.45
12757;BME280;31601;48.042;12.240;2023-04-09T08:31:35;96911.50;;;10.17;60.38
12757;BME280;31601;48.042;12.240;2023-04-09T08:34:02;96914.09;;;9.93;61.41
12757;BME280;31601;48.042;12.240;2023-04-09T08:36:30;96913.41;;;9.07;62.93
12757;BME280;31601;48.042;12.240;2023-04-09T08:38:59;96908.88;;;9.84;62.71
12757;BME280;31601;48.042;12.240;2023-04-09T08:41:26;96908.22;;;10.48;61.45
12757;BME280;31601;48.042;12.240;2023-04-09T08:43:54;96910.22;;;11.02;59.62
12757;BME280;31601;48.042;12.240;2023-04-09T08:46:21;96917.59;;;11.46;57.85
12757;BME280;31601;48.042;12.240;2023-04-09T08:48:49;96921.41;;;11.90;56.81
12757;BME280;31601;48.042;12.240;2023-04-09T08:51:17;96922.22;;;11.68;54.35
12757;BME280;31601;48.042;12.240;2023-04-09T08:53:45;96919.34;;;10.59;56.52
12757;BME280;31601;48.042;12.240;2023-04-09T08:56:12;96922.78;;;11.23;55.15
12757;BME280;31601;48.042;12.240;2023-04-09T08:58:41;96918.72;;;11.13;55.72
12757;BME280;31601;48.042;12.240;2023-04-09T09:01:19;96916.59;;;11.08;55.23
12757;BME280;31601;48.042;12.240;2023-04-09T09:03:57;96925.13;;;11.10;57.74
12757;BME280;31601;48.042;12.240;2023-04-09T09:06:25;96919.91;;;10.93;57.02
12757;BME280;31601;48.042;12.240;2023-04-09T09:09:04;96920.00;;;10.11;58.28
12757;BME280;31601;48.042;12.240;2023-04-09T09:11:32;96922.13;;;9.83;60.11
12757;BME280;31601;48.042;12.240;2023-04-09T09:14:03;96930.53;;;10.19;58.86
12757;BME280;31601;48.042;12.240;2023-04-09T09:16:31;96921.47;;;9.97;59.52
12757;BME280;31601;48.042;12.240;2023-04-09T09:18:59;96924.94;;;9.98;60.28
12757;BME280;31601;48.042;12.240;2023-04-09T09:21:26;96918.22;;;10.12;57.98
12757;BME280;31601;48.042;12.240;2023-04-09T09:23:53;96920.81;;;10.03;56.93
12757;BME280;31601;48.042;12.240;2023-04-09T09:26:23;96923.34;;;10.38;57.60
12757;BME280;31601;48.042;12.240;2023-04-09T09:28:50;96916.69;;;10.83;55.88
12757;BME280;31601;48.042;12.240;2023-04-09T09:31:18;96918.81;;;11.27;54.88
12757;BME280;31601;48.042;12.240;2023-04-09T09:33:45;96911.50;;;11.46;54.25
12757;BME280;31601;48.042;12.240;2023-04-09T09:36:12;96911.66;;;11.13;53.65
12757;BME280;31601;48.042;12.240;2023-04-09T09:38:53;96919.59;;;11.36;53.20
12757;BME280;31601;48.042;12.240;2023-04-09T09:41:19;96918.97;;;10.78;53.11
12757;BME280;31601;48.042;12.240;2023-04-09T09:43:47;96911.13;;;11.57;51.50
12757;BME280;31601;48.042;12.240;2023-04-09T09:46:14;96909.25;;;11.97;51.92
12757;BME280;31601;48.042;12.240;2023-04-09T09:48:42;96898.84;;;12.42;51.67
12757;BME280;31601;48.042;12.240;2023-04-09T09:51:10;96916.84;;;11.61;48.88
12757;BME280;31601;48.042;12.240;2023-04-09T09:53:38;96916.00;;;11.29;51.17
12757;BME280;31601;48.042;12.240;2023-04-09T09:56:05;96908.59;;;11.64;50.25
12757;BME280;31601;48.042;12.240;2023-04-09T09:58:38;96911.34;;;11.08;51.60
12757;BME280;31601;48.042;12.240;2023-04-09T10:01:11;96914.81;;;10.44;53.76
12757;BME280;31601;48.042;12.240;2023-04-09T10:03:39;96914.13;;;10.42;56.24
12757;BME280;31601;48.042;12.240;2023-04-09T10:06:06;96921.00;;;10.27;55.18
12757;BME280;31601;48.042;12.240;2023-04-09T10:08:35;96924.09;;;9.89;57.31
12757;BME280;31601;48.042;12.240;2023-04-09T10:11:05;96913.13;;;9.85;57.79
12757;BME280;31601;48.042;12.240;2023-04-09T10:13:33;96913.56;;;9.56;58.81
12757;BME280;31601;48.042;12.240;2023-04-09T10:16:00;96918.69;;;9.82;59.02
12757;BME280;31601;48.042;12.240;2023-04-09T10:18:29;96911.16;;;9.88;58.93
12757;BME280;31601;48.042;12.240;2023-04-09T10:20:58;96914.06;;;9.60;58.61
12757;BME280;31601;48.042;12.240;2023-04-09T10:23:32;96911.28;;;9.53;57.95
12757;BME280;31601;48.042;12.240;2023-04-09T10:26:01;96918.53;;;9.25;61.38
12757;BME280;31601;48.042;12.240;2023-04-09T10:28:29;96917.63;;;9.42;60.05
12757;BME280;31601;48.042;12.240;2023-04-09T10:30:56;96908.47;;;9.46;60.75
12757;BME280;31601;48.042;12.240;2023-04-09T10:33:24;96908.19;;;9.74;58.61
12757;BME280;31601;48.042;12.240;2023-04-09T10:35:53;96918.22;;;8.85;61.55
12757;BME280;31601;48.042;12.240;2023-04-09T10:38:35;96912.97;;;9.20;59.95
12757;BME280;31601;48.042;12.240;2023-04-09T10:41:10;96910.56;;;8.92;61.45
12757;BME280;31601;48.042;12.240;2023-04-09T10:43:39;96915.69;;;8.75;62.67
12757;BME280;31601;48.042;12.240;2023-04-09T10:46:08;96917.09;;;8.62;62.09
12757;BME280;31601;48.042;12.240;2023-04-09T10:49:06;96914.31;;;8.63;62.67
12757;BME280;31601;48.042;12.240;2023-04-09T10:51:35;96913.50;;;8.89;62.74
12757;BME280;31601;48.042;12.240;2023-04-09T10:54:03;96918.16;;;8.77;62.65
12757;BME280;31601;48.042;12.240;2023-04-09T10:56:30;96923.84;;;8.72;63.23
12757;BME280;31601;48.042;12.240;2023-04-09T10:58:56;96919.91;;;8.94;63.77
12757;BME280;31601;48.042;12.240;2023-04-09T11:01:23;96907.59;;;8.87;62.16
12757;BME280;31601;48.042;12.240;2023-04-09T11:04:06;96910.41;;;9.36;60.96
12757;BME280;31601;48.042;12.240;2023-04-09T11:06:37;96910.69;;;9.25;61.90
12757;BME280;31601;48.042;12.240;2023-04-09T11:09:06;96908.34;;;9.05;61.87
12757;BME280;31601;48.042;12.240;2023-04-09T11:11:32;96907.53;;;9.72;61.69
12757;BME280;31601;48.042;12.240;2023-04-09T11:14:00;96901.78;;;9.60;60.78
12757;BME280;31601;48.042;12.240;2023-04-09T11:16:28;96904.38;;;9.44;60.46
12757;BME280;31601;48.042;12.240;2023-04-09T11:18:55;96901.28;;;9.65;58.42
12757;BME280;31601;48.042;12.240;2023-04-09T11:21:25;96902.00;;;10.16;57.48
12757;BME280;31601;48.042;12.240;2023-04-09T11:23:54;96901.31;;;10.31;57.00
12757;BME280;31601;48.042;12.240;2023-04-09T11:26:34;96903.31;;;10.29;54.22
12757;BME280;31601;48.042;12.240;2023-04-09T11:29:04;96900.84;;;10.44;55.61
12757;BME280;31601;48.042;12.240;2023-04-09T11:31:30;96888.59;;;11.32;54.78
12757;BME280;31601;48.042;12.240;2023-04-09T11:33:57;96895.09;;;11.44;53.06
12757;BME280;31601;48.042;12.240;2023-04-09T11:36:23;96886.28;;;11.60;53.40
12757;BME280;31601;48.042;12.240;2023-04-09T11:38:51;96894.81;;;11.93;51.82
12757;BME280;31601;48.042;12.240;2023-04-09T11:41:31;96892.94;;;11.47;52.49
12757;BME280;31601;48.042;12.240;2023-04-09T11:43:58;96893.16;;;11.92;52.63
12757;BME280;31601;48.042;12.240;2023-04-09T11:46:27;96898.78;;;11.26;53.89
12757;BME280;31601;48.042;12.240;2023-04-09T11:48:54;96889.09;;;11.58;54.52
12757;BME280;31601;48.042;12.240;2023-04-09T11:51:21;96890.06;;;11.26;53.85
12757;BME280;31601;48.042;12.240;2023-04-09T11:53:48;96900.50;;;12.20;52.31
12757;BME280;31601;48.042;12.240;2023-04-09T11:56:15;96888.75;;;11.85;51.18
12757;BME280;31601;48.042;12.240;2023-04-09T11:58:45;96894.38;;;12.05;49.68
12757;BME280;31601;48.042;12.240;2023-04-09T12:01:12;96894.59;;;11.72;50.04
12757;BME280;31601;48.042;12.240;2023-04-09T12:03:39;96891.03;;;11.88;50.88
12757;BME280;31601;48.042;12.240;2023-04-09T12:06:06;96884.88;;;11.49;50.51
12757;BME280;31601;48.042;12.240;2023-04-09T12:08:34;96889.63;;;11.22;53.50
12757;BME280;31601;48.042;12.240;2023-04-09T12:11:08;96891.03;;;11.02;52.06
12757;BME280;31601;48.042;12.240;2023-04-09T12:13:35;96889.25;;;10.94;53.72
12757;BME280;31601;48.042;12.240;2023-04-09T12:16:05;96898.53;;;10.57;53.16
12757;BME280;31601;48.042;12.240;2023-04-09T12:18:35;96895.72;;;10.67;52.94
12757;BME280;31601;48.042;12.240;2023-04-09T12:21:01;96893.81;;;10.92;53.11
12757;BME280;31601;48.042;12.240;2023-04-09T12:23:28;96894.66;;;10.36;53.47
12757;BME280;31601;48.042;12.240;2023-04-09T12:25:55;96897.09;;;10.46;53.85
12757;BME280;31601;48.042;12.240;2023-04-09T12:28:25;96897.59;;;10.98;52.53
12757;BME280;31601;48.042;12.240;2023-04-09T12:30:52;96892.75;;;11.49;50.62
12757;BME280;31601;48.042;12.240;2023-04-09T12:33:20;96886.16;;;11.53;49.61
12757;BME280;31601;48.042;12.240;2023-04-09T12:35:46;96898.63;;;11.28;50.77
12757;BME280;31601;48.042;12.240;2023-04-09T12:38:13;96893.69;;;10.85;51.11
12757;BME280;31601;48.042;12.240;2023-04-09T12:40:39;96897.97;;;11.57;51.64
12757;BME280;31601;48.042;12.240;2023-04-09T12:43:06;96893.81;;;11.00;51.12
12757;BME280;31601;48.042;12.240;2023-04-09T12:45:32;96899.63;;;10.79;51.71
12757;BME280;31601;48.042;12.240;2023-04-09T12:47:59;96895.22;;;11.51;49.80
12757;BME280;31601;48.042;12.240;2023-04-09T12:50:27;96891.03;;;11.88;50.05
12757;BME280;31601;48.042;12.240;2023-04-09T12:52:53;96888.69;;;11.70;49.22
12757;BME280;31601;48.042;12.240;2023-04-09T12:55:20;96896.72;;;11.45;49.83
12757;BME280;31601;48.042;12.240;2023-04-09T12:57:49;96892.84;;;11.64;50.26
12757;BME280;31601;48.042;12.240;2023-04-09T13:00:16;96883.13;;;12.34;50.13